Time;durP1;ratioP1;P1;durP2;ratioP2;P2;SDS_P1;SDS_P2;PMS_P1;PMS_P2;Temp;Humidity;BMP_temperature;BMP_pressure;BME280_temperature;BME280_humidity;BME280_pressure;Samples;Min_cycle;Max_cycle;Signal;HPM_P1;HPM_P2
2024/01/10 00:02:19;;;;;;;6.30;2.60;;;;;;;-3.57;100.00;101788.19;5048527;28;20108;-73
2024/01/10 00:04:45;;;;;;;6.83;3.30;;;;;;;-3.14;100.00;101870.50;5049303;28;20052;-73
2024/01/10 00:07:10;;;;;;;8.30;3.97;;;;;;;-3.22;100.00;101861.13;5048726;28;20051;-77
2024/01/10 00:09:36;;;;;;;7.23;3.20;;;;;;;-3.19;100.00;101869.06;5048790;28;20047;-73
2024/01/10 00:12:01;;;;;;;5.77;3.13;;;;;;;-3.16;100.00;101876.09;5048952;28;20035;-72
2024/01/10 00:14:27;;;;;;;7.17;3.03;;;;;;;-3.14;100.00;101894.84;5048959;28;20036;-73
2024/01/10 00:16:52;;;;;;;7.60;3.03;;;;;;;-3.18;100.00;101882.59;5048414;28;20037;-73
2024/01/10 00:19:18;;;;;;;6.07;3.00;;;;;;;-3.30;100.00;101866.94;5048936;28;20028;-73
2024/01/10 00:21:43;;;;;;;6.30;2.93;;;;;;;-3.20;100.00;101884.94;5048667;28;20055;-73
2024/01/10 00:24:09;;;;;;;7.57;2.87;;;;;;;-3.30;100.00;101882.09;5046548;28;20021;-73
2024/01/10 00:26:35;;;;;;;6.27;2.87;;;;;;;-3.27;100.00;101885.84;5048439;28;20549;-73
2024/01/10 00:29:01;;;;;;;5.83;2.87;;;;;;;-3.30;100.00;101898.13;5048587;28;20029;-74
2024/01/10 00:31:26;;;;;;;8.53;3.40;;;;;;;-3.36;100.00;101869.66;5049691;28;20406;-73
2024/01/10 00:33:53;;;;;;;9.17;3.17;;;;;;;-3.40;100.00;101849.84;5048556;28;20065;-73
2024/01/10 00:36:19;;;;;;;5.10;2.33;;;;;;;-3.30;100.00;101861.91;5048158;28;20036;-74
2024/01/10 00:38:44;;;;;;;6.30;2.83;;;;;;;-3.46;100.00;101828.94;5048665;28;20036;-73
2024/01/10 00:41:11;;;;;;;9.00;4.17;;;;;;;-3.13;100.00;101891.59;5048479;28;20112;-73
2024/01/10 00:43:37;;;;;;;6.13;3.30;;;;;;;-3.87;100.00;101777.13;5047801;28;20029;-74
2024/01/10 00:46:02;;;;;;;6.67;2.73;;;;;;;-3.28;100.00;101888.19;5042066;28;20041;-74
2024/01/10 00:48:28;;;;;;;6.57;3.10;;;;;;;-3.41;100.00;101880.84;5048200;28;20025;-73
2024/01/10 00:50:53;;;;;;;6.00;2.60;;;;;;;-3.27;100.00;101902.63;5048181;28;20028;-74
2024/01/10 00:53:19;;;;;;;10.53;3.30;;;;;;;-3.34;100.00;101884.97;5048280;28;20483;-74
2024/01/10 00:55:45;;;;;;;8.33;2.90;;;;;;;-3.32;100.00;101898.69;5048385;28;20044;-74
2024/01/10 00:58:11;;;;;;;5.53;2.77;;;;;;;-3.28;100.00;101893.25;5048458;28;20039;-72
2024/01/10 01:00:37;;;;;;;8.93;4.50;;;;;;;-3.27;100.00;101901.00;5048968;28;20406;-74
2024/01/10 01:03:03;;;;;;;9.50;3.40;;;;;;;-3.24;100.00;101887.81;5049468;28;20111;-73
2024/01/10 01:05:28;;;;;;;5.33;2.70;;;;;;;-3.31;100.00;101875.25;5048710;28;20033;-74
2024/01/10 01:07:54;;;;;;;3.90;2.30;;;;;;;-3.43;100.00;101857.97;5046466;28;20110;-74
2024/01/10 01:10:19;;;;;;;6.17;2.40;;;;;;;-3.21;100.00;101892.34;5048663;28;20407;-74
2024/01/10 01:12:45;;;;;;;5.13;2.73;;;;;;;-3.65;100.00;101809.13;5048814;28;20087;-74
2024/01/10 01:15:10;;;;;;;5.77;2.70;;;;;;;-3.27;100.00;101872.34;5046033;28;20045;-79
2024/01/10 01:17:36;;;;;;;10.33;2.70;;;;;;;-3.21;99.40;101890.72;5049699;28;20819;-73
2024/01/10 01:20:04;;;;;;;5.23;2.70;;;;;;;-3.29;99.44;101879.75;5048703;28;20068;-74
2024/01/10 01:22:31;;;;;;;8.17;3.80;;;;;;;-3.37;100.00;101872.91;5034818;28;20048;-74
2024/01/10 01:24:56;;;;;;;7.23;3.80;;;;;;;-3.20;99.80;101881.50;5049454;28;20041;-73
2024/01/10 01:27:22;;;;;;;4.60;2.30;;;;;;;-3.35;98.81;101858.84;5048672;28;20064;-73
2024/01/10 01:29:47;;;;;;;4.60;2.20;;;;;;;-3.18;98.91;101882.59;5048930;28;20633;-75
2024/01/10 01:32:12;;;;;;;5.17;2.60;;;;;;;-3.57;99.52;101836.16;5048892;28;20033;-74
2024/01/10 01:34:38;;;;;;;6.37;2.87;;;;;;;-3.23;100.00;101889.63;5048595;28;20470;-73
2024/01/10 01:37:04;;;;;;;5.03;2.27;;;;;;;-3.21;100.00;101884.78;5048680;28;20423;-74
2024/01/10 01:39:29;;;;;;;5.47;2.17;;;;;;;-3.22;100.00;101880.44;5048537;28;20094;-73
2024/01/10 01:41:54;;;;;;;5.60;2.60;;;;;;;-3.22;100.00;101876.28;5048639;28;20039;-72
2024/01/10 01:44:21;;;;;;;6.20;2.70;;;;;;;-3.37;100.00;101845.13;5048429;28;20033;-72
2024/01/10 01:46:47;;;;;;;8.87;2.80;;;;;;;-3.21;100.00;101874.69;5051527;28;20561;-73
2024/01/10 01:49:14;;;;;;;5.83;2.50;;;;;;;-3.16;100.00;101874.47;5051692;28;20025;-74
2024/01/10 01:51:40;;;;;;;5.17;2.27;;;;;;;-3.15;100.00;101871.22;5051768;28;20040;-72
2024/01/10 01:54:11;;;;;;;4.97;2.50;;;;;;;-3.14;100.00;101880.59;5051899;28;20021;-74
2024/01/10 01:56:37;;;;;;;8.23;3.27;;;;;;;-3.19;100.00;101866.53;5051685;28;20060;-74
2024/01/10 01:59:04;;;;;;;3.80;2.00;;;;;;;-3.32;100.00;101853.22;5052125;28;20021;-74
2024/01/10 02:01:30;;;;;;;6.43;2.40;;;;;;;-3.15;100.00;101873.75;5052748;28;20044;-74
2024/01/10 02:03:56;;;;;;;6.33;2.73;;;;;;;-3.22;100.00;101858.59;5051888;28;20033;-73
2024/01/10 02:06:22;;;;;;;5.43;2.63;;;;;;;-3.61;100.00;101792.72;5051862;28;20052;-73
2024/01/10 02:08:47;;;;;;;5.13;3.03;;;;;;;-3.14;100.00;101870.50;5051681;28;20437;-74
2024/01/10 02:11:13;;;;;;;4.13;2.07;;;;;;;-3.37;100.00;101841.72;5051572;28;20028;-75
2024/01/10 02:13:39;;;;;;;7.53;3.17;;;;;;;-3.27;100.00;101867.28;5043117;28;20024;-73
2024/01/10 02:16:05;;;;;;;7.87;3.00;;;;;;;-3.29;100.00;101871.25;5052321;28;20021;-77
2024/01/10 02:18:31;;;;;;;6.93;3.27;;;;;;;-3.28;100.00;101865.47;5051212;28;20525;-74
2024/01/10 02:20:57;;;;;;;6.37;2.37;;;;;;;-3.37;100.00;101877.94;5051439;28;20120;-74
2024/01/10 02:23:23;;;;;;;5.30;2.33;;;;;;;-3.72;100.00;101803.22;5051011;28;20552;-73
2024/01/10 02:25:49;;;;;;;3.93;2.17;;;;;;;-3.42;99.37;101856.31;5051304;28;20112;-72
2024/01/10 02:28:14;;;;;;;4.17;2.53;;;;;;;-3.70;100.00;101801.75;5051364;28;20418;-75
2024/01/10 02:30:40;;;;;;;6.73;2.70;;;;;;;-3.34;100.00;101874.88;5052074;28;20036;-71
2024/01/10 02:33:05;;;;;;;4.53;2.17;;;;;;;-3.81;100.00;101809.00;5051089;28;20028;-73
2024/01/10 02:35:32;;;;;;;6.53;2.53;;;;;;;-3.38;100.00;101875.25;5051315;28;20436;-73
2024/01/10 02:37:58;;;;;;;8.17;2.10;;;;;;;-3.55;99.67;101853.09;5051015;28;20171;-73
2024/01/10 02:40:24;;;;;;;4.97;2.37;;;;;;;-3.45;99.85;101848.38;5051233;28;20090;-73
2024/01/10 02:42:51;;;;;;;5.47;2.07;;;;;;;-3.82;98.99;101793.69;5051588;28;20029;-73
2024/01/10 02:45:17;;;;;;;3.33;1.70;;;;;;;-3.94;97.99;101767.91;5050483;28;20040;-73
2024/01/10 02:47:42;;;;;;;4.03;2.07;;;;;;;-3.31;96.64;101880.28;5050879;28;20033;-77
2024/01/10 02:50:08;;;;;;;3.93;1.97;;;;;;;-3.68;96.13;101810.41;5050962;28;20427;-72
2024/01/10 02:52:33;;;;;;;3.93;2.00;;;;;;;-3.32;96.46;101883.53;5051427;28;20052;-73
2024/01/10 02:54:59;;;;;;;5.73;2.47;;;;;;;-3.21;96.79;101874.69;5051102;28;20463;-73
2024/01/10 02:57:24;;;;;;;4.57;2.10;;;;;;;-3.26;99.86;101884.25;5049433;28;20038;-73
2024/01/10 02:59:50;;;;;;;5.40;2.20;;;;;;;-3.20;100.00;101872.31;5051037;28;20518;-74
2024/01/10 03:02:15;;;;;;;6.43;3.00;;;;;;;-3.12;98.34;101886.69;5050595;28;20029;-73
2024/01/10 03:04:41;;;;;;;5.47;2.60;;;;;;;-3.26;97.67;101862.41;5050842;28;20037;-73
2024/01/10 03:07:07;;;;;;;9.93;3.13;;;;;;;-3.06;97.29;101885.63;5051364;28;20029;-73
2024/01/10 03:09:33;;;;;;;8.13;3.47;;;;;;;-3.27;97.18;101869.81;5049396;28;20098;-74
2024/01/10 03:11:58;;;;;;;5.03;2.40;;;;;;;-3.68;97.30;101820.50;5050448;28;20121;-74
2024/01/10 03:14:24;;;;;;;4.97;2.20;;;;;;;-3.37;97.63;101893.09;5050670;28;20025;-73
2024/01/10 03:16:49;;;;;;;5.90;2.50;;;;;;;-3.33;99.58;101887.66;5051706;28;20059;-79
2024/01/10 03:19:15;;;;;;;5.00;2.30;;;;;;;-3.34;99.61;101895.06;5050404;28;20055;-73
2024/01/10 03:21:40;;;;;;;6.53;1.93;;;;;;;-3.38;100.00;101888.75;5050316;28;20082;-73
2024/01/10 03:24:06;;;;;;;4.57;2.10;;;;;;;-3.41;100.00;101894.38;5050130;28;20029;-73
2024/01/10 03:26:32;;;;;;;4.67;2.40;;;;;;;-3.44;100.00;101890.59;5049110;28;20506;-73
2024/01/10 03:28:58;;;;;;;5.80;2.80;;;;;;;-3.61;100.00;101863.41;5050521;28;20029;-77
2024/01/10 03:31:23;;;;;;;3.03;2.03;;;;;;;-4.25;100.00;101742.56;5050780;28;20102;-72
2024/01/10 03:33:50;;;;;;;4.20;2.27;;;;;;;-3.88;100.00;101814.03;5050091;28;20132;-74
2024/01/10 03:36:17;;;;;;;6.10;2.30;;;;;;;-3.51;100.00;101896.56;5050826;28;20062;-73
2024/01/10 03:38:43;;;;;;;5.17;2.43;;;;;;;-3.51;100.00;101883.94;5047923;28;20037;-76
2024/01/10 03:41:16;;;;;;;6.87;2.17;;;;;;;-3.39;100.00;101888.59;5050010;28;20111;-73
2024/01/10 03:43:43;;;;;;;5.33;2.50;;;;;;;-3.36;100.00;101894.91;5045820;28;20033;-78
2024/01/10 03:46:09;;;;;;;4.20;2.20;;;;;;;-3.34;99.96;101895.06;5050001;28;20036;-72
2024/01/10 03:48:34;;;;;;;5.47;2.90;;;;;;;-3.68;98.90;101856.72;5050178;28;20025;-73
2024/01/10 03:51:00;;;;;;;6.27;2.50;;;;;;;-3.57;98.72;101903.41;5049945;28;20032;-75
2024/01/10 03:53:27;;;;;;;5.23;2.23;;;;;;;-3.64;99.92;101888.28;5050656;28;20052;-78
2024/01/10 03:55:52;;;;;;;4.63;2.10;;;;;;;-3.58;100.00;101892.44;5048505;28;20418;-72
2024/01/10 03:58:18;;;;;;;6.97;2.50;;;;;;;-3.58;100.00;101902.53;5050094;28;20108;-72
2024/01/10 04:00:43;;;;;;;6.60;2.60;;;;;;;-3.64;100.00;101908.47;5049642;28;20029;-74
2024/01/10 04:03:09;;;;;;;4.60;2.17;;;;;;;-3.88;99.20;101883.81;5049587;28;20406;-73
2024/01/10 04:05:34;;;;;;;4.77;2.27;;;;;;;-3.71;99.94;101924.53;5049433;28;20115;-73
2024/01/10 04:08:00;;;;;;;5.40;2.33;;;;;;;-3.93;98.82;101890.81;5048945;28;20030;-73
2024/01/10 04:10:25;;;;;;;5.93;3.00;;;;;;;-3.79;99.76;101925.25;5050317;28;20036;-73
2024/01/10 04:12:51;;;;;;;9.03;3.43;;;;;;;-4.38;99.56;101828.47;5049649;28;20063;-73
2024/01/10 04:15:17;;;;;;;6.30;3.30;;;;;;;-3.91;99.22;101912.09;5049680;28;20036;-73
2024/01/10 04:17:43;;;;;;;5.90;2.90;;;;;;;-3.82;99.85;101925.78;5049989;28;20029;-74
2024/01/10 04:20:09;;;;;;;7.83;3.30;;;;;;;-3.80;100.00;101931.91;5049731;28;20396;-72
2024/01/10 04:22:35;;;;;;;6.57;2.60;;;;;;;-3.81;98.77;101937.69;5049329;28;20466;-73
2024/01/10 04:25:01;;;;;;;5.70;2.50;;;;;;;-3.78;98.36;101935.50;5050028;28;20033;-73
2024/01/10 04:27:27;;;;;;;4.57;2.10;;;;;;;-3.68;98.39;101944.16;5049638;28;20033;-73
2024/01/10 04:29:53;;;;;;;7.53;2.50;;;;;;;-3.60;98.21;101944.34;5049216;28;20033;-73
2024/01/10 04:32:19;;;;;;;7.53;3.57;;;;;;;-3.56;95.97;101943.09;5049306;28;20497;-73
2024/01/10 04:34:45;;;;;;;15.13;7.73;;;;;;;-3.47;95.56;101938.22;5049991;28;20078;-73
2024/01/10 04:37:10;;;;;;;8.37;4.07;;;;;;;-3.47;98.04;101941.63;5048959;28;20127;-73
2024/01/10 04:39:37;;;;;;;5.97;3.20;;;;;;;-3.37;98.43;101955.34;5049483;28;20041;-73
2024/01/10 04:42:04;;;;;;;5.10;3.00;;;;;;;-3.35;97.16;101962.38;5049033;28;20040;-74
2024/01/10 04:44:29;;;;;;;4.70;2.30;;;;;;;-3.86;98.03;101862.16;5049040;28;20036;-73
2024/01/10 04:46:55;;;;;;;5.27;2.50;;;;;;;-3.34;97.04;101964.19;5049174;28;20087;-73
2024/01/10 04:49:21;;;;;;;8.17;2.60;;;;;;;-3.68;99.22;101903.78;5048863;28;20029;-74
2024/01/10 04:51:47;;;;;;;5.07;2.77;;;;;;;-3.34;98.38;101961.66;5049790;28;20048;-74
2024/01/10 04:54:13;;;;;;;5.27;2.63;;;;;;;-3.33;99.73;101975.16;5049138;28;20033;-73
2024/01/10 04:56:38;;;;;;;5.90;2.70;;;;;;;-3.93;100.00;101873.16;5049103;28;20033;-74
2024/01/10 04:59:04;;;;;;;11.13;5.27;;;;;;;-3.63;100.00;101933.88;5049047;28;20032;-76
2024/01/10 05:01:30;;;;;;;7.27;3.97;;;;;;;-3.45;100.00;101975.53;5045377;28;20033;-73
2024/01/10 05:03:56;;;;;;;8.57;4.27;;;;;;;-4.31;100.00;101825.06;5049433;28;20036;-74
2024/01/10 05:06:21;;;;;;;11.27;4.83;;;;;;;-3.57;100.00;101944.69;5049353;28;20047;-74
2024/01/10 05:08:47;;;;;;;12.47;3.83;;;;;;;-3.42;100.00;101978.41;5049374;28;20040;-73
2024/01/10 05:11:15;;;;;;;6.20;3.27;;;;;;;-3.25;100.00;101992.13;5047488;28;20021;-74
2024/01/10 05:13:40;;;;;;;9.07;2.83;;;;;;;-3.18;99.00;101988.69;5047594;28;20491;-73
2024/01/10 05:16:06;;;;;;;9.70;3.10;;;;;;;-3.25;100.00;101993.00;5049666;28;20032;-74
2024/01/10 05:18:31;;;;;;;8.97;4.27;;;;;;;-3.28;98.80;101992.69;5047558;28;20041;-71
2024/01/10 05:20:58;;;;;;;7.73;3.77;;;;;;;-3.39;99.92;101975.34;5045935;28;20025;-73
2024/01/10 05:23:23;;;;;;;11.63;4.53;;;;;;;-3.31;99.29;101997.34;5051128;28;20032;-73
2024/01/10 05:25:49;;;;;;;13.07;5.07;;;;;;;-3.27;99.79;102008.72;5052736;28;20029;-75
2024/01/10 05:28:15;;;;;;;11.43;4.40;;;;;;;-3.32;100.00;101995.53;5053598;28;20110;-73
2024/01/10 05:30:42;;;;;;;11.40;4.77;;;;;;;-3.39;100.00;102018.25;5052646;28;20112;-73
2024/01/10 05:33:08;;;;;;;10.20;4.60;;;;;;;-3.48;100.00;102007.09;5050073;28;20036;-74
2024/01/10 05:35:34;;;;;;;7.43;3.93;;;;;;;-3.49;99.89;102016.31;5051865;28;20040;-75
2024/01/10 05:37:59;;;;;;;14.77;4.30;;;;;;;-3.48;99.05;102002.03;5050056;28;20053;-72
2024/01/10 05:40:25;;;;;;;9.10;3.87;;;;;;;-3.96;100.00;101920.75;5052424;28;20112;-72
2024/01/10 05:42:50;;;;;;;9.70;4.67;;;;;;;-3.99;100.00;101935.50;5052093;28;20047;-73
2024/01/10 05:45:18;;;;;;;11.23;3.93;;;;;;;-3.88;100.00;101962.91;5052121;28;20498;-74
2024/01/10 05:47:44;;;;;;;9.30;4.30;;;;;;;-3.83;100.00;101974.44;5050552;28;20029;-73
2024/01/10 05:50:10;;;;;;;10.57;4.37;;;;;;;-3.83;100.00;101994.63;5052195;28;20020;-73
2024/01/10 05:52:35;;;;;;;8.37;4.33;;;;;;;-3.80;100.00;102020.25;5050624;28;20510;-73
2024/01/10 05:55:02;;;;;;;15.60;4.40;;;;;;;-3.86;100.00;102024.56;5053179;28;20029;-74
2024/01/10 05:57:28;;;;;;;7.80;3.50;;;;;;;-3.82;100.00;102025.81;5052285;28;20040;-73
2024/01/10 05:59:56;;;;;;;7.40;3.70;;;;;;;-4.25;100.00;101958.50;5052264;28;20036;-73
2024/01/10 06:02:24;;;;;;;10.65;4.28;;;;;;;-3.79;100.00;102017.00;5052379;28;20021;-78
2024/01/10 06:04:50;;;;;;;8.67;4.10;;;;;;;-3.77;100.00;102024.75;5050439;28;20514;-74
2024/01/10 06:07:15;;;;;;;12.53;5.53;;;;;;;-3.93;100.00;102030.47;5039108;28;20025;-76
2024/01/10 06:09:41;;;;;;;14.13;6.30;;;;;;;-3.97;100.00;102033.34;5050321;28;20043;-75
2024/01/10 06:12:06;;;;;;;14.97;7.37;;;;;;;-4.12;100.00;101997.09;5050239;28;21490;-73
2024/01/10 06:14:32;;;;;;;13.80;7.63;;;;;;;-4.11;100.00;102008.06;5046151;28;20051;-78
2024/01/10 06:16:59;;;;;;;18.87;9.37;;;;;;;-4.00;100.00;102044.69;5052245;28;20061;-73
2024/01/10 06:19:25;;;;;;;26.93;11.20;;;;;;;-4.22;100.00;102026.97;5051250;28;20044;-73
2024/01/10 06:21:51;;;;;;;21.67;10.40;;;;;;;-4.72;100.00;101957.13;5051163;28;20036;-72
2024/01/10 06:24:17;;;;;;;24.30;10.07;;;;;;;-4.28;100.00;102043.88;5050608;28;20031;-73
2024/01/10 06:26:43;;;;;;;19.70;7.60;;;;;;;-4.44;100.00;102049.56;5044555;28;20400;-73
2024/01/10 06:29:08;;;;;;;16.13;7.60;;;;;;;-4.89;100.00;101973.56;5052753;28;20029;-73
2024/01/10 06:31:34;;;;;;;7.90;4.57;;;;;;;-4.44;100.00;102052.09;5051184;28;20029;-71
2024/01/10 06:33:59;;;;;;;10.40;4.40;;;;;;;-4.50;100.00;102058.00;5051664;28;20044;-71
2024/01/10 06:36:25;;;;;;;8.93;3.93;;;;;;;-4.71;100.00;102029.44;5051236;28;20053;-74
2024/01/10 06:38:50;;;;;;;9.87;4.27;;;;;;;-4.67;100.00;102056.84;5051706;28;20068;-73
2024/01/10 06:41:16;;;;;;;8.23;3.97;;;;;;;-5.14;100.00;102035.13;5051596;28;20120;-73
2024/01/10 06:43:41;;;;;;;9.73;3.80;;;;;;;-5.21;100.00;102032.53;5051527;28;20036;-73
2024/01/10 06:46:07;;;;;;;16.50;5.77;;;;;;;-5.13;100.00;102062.13;5052094;28;20407;-73
2024/01/10 06:48:33;;;;;;;16.10;7.43;;;;;;;-5.46;100.00;102042.06;5051474;28;20033;-73
2024/01/10 06:51:00;;;;;;;13.90;6.30;;;;;;;-5.31;100.00;102055.66;5051282;28;20108;-73
2024/01/10 06:53:25;;;;;;;11.43;5.07;;;;;;;-5.46;100.00;102021.03;5049787;28;20068;-74
2024/01/10 06:55:50;;;;;;;6.77;3.10;;;;;;;-5.10;100.00;102067.50;5050708;28;20542;-73
2024/01/10 06:58:16;;;;;;;25.73;11.03;;;;;;;-5.33;100.00;102068.75;5050904;28;20103;-72
2024/01/10 07:00:42;;;;;;;21.93;9.03;;;;;;;-5.29;100.00;102068.47;5051701;28;20124;-73
2024/01/10 07:03:07;;;;;;;14.60;5.53;;;;;;;-5.32;100.00;102063.94;5050728;28;20483;-75
2024/01/10 07:05:33;;;;;;;10.07;4.27;;;;;;;-5.22;100.00;102073.53;5050812;28;20036;-73
2024/01/10 07:07:59;;;;;;;10.63;4.80;;;;;;;-5.27;100.00;102052.84;5050636;28;20043;-73
2024/01/10 07:10:28;;;;;;;11.50;5.30;;;;;;;-5.08;100.00;102065.22;5050931;28;20032;-74
2024/01/10 07:12:57;;;;;;;10.38;4.20;;;;;;;-4.78;100.00;102083.22;5049025;28;20112;-73
2024/01/10 07:15:22;;;;;;;14.63;8.68;;;;;;;-4.57;100.00;102094.16;5050131;28;20569;-73
2024/01/10 07:17:48;;;;;;;14.23;8.40;;;;;;;-4.44;100.00;102084.84;5050813;28;20028;-74
2024/01/10 07:20:14;;;;;;;23.03;8.27;;;;;;;-4.37;100.00;102068.88;5051623;28;20029;-74
2024/01/10 07:22:43;;;;;;;17.70;7.00;;;;;;;-4.06;100.00;102087.75;5050182;28;20025;-72
2024/01/10 07:25:14;;;;;;;7.30;2.87;;;;;;;-3.88;100.00;102104.19;5051485;28;20033;-74
2024/01/10 07:27:43;;;;;;;4.73;3.23;;;;;;;-3.74;100.00;102091.63;5050525;28;20087;-77
2024/01/10 07:30:15;;;;;;;51.25;22.17;;;;;;;-3.67;100.00;102095.78;5050909;28;20112;-74
2024/01/10 07:32:42;;;;;;;100.97;40.97;;;;;;;-3.60;100.00;102097.41;5048585;28;20108;-74
2024/01/10 07:35:09;;;;;;;23.03;9.27;;;;;;;-3.50;100.00;102097.81;5049428;28;20033;-74
2024/01/10 07:37:39;;;;;;;6.93;3.60;;;;;;;-3.39;100.00;102098.19;5050260;28;20111;-73
2024/01/10 07:40:08;;;;;;;202.73;73.07;;;;;;;-3.81;100.00;102004.94;5050299;28;20039;-74
2024/01/10 07:42:34;;;;;;;114.75;45.05;;;;;;;-3.32;100.00;102093.16;5050222;28;20040;-78
2024/01/10 07:45:04;;;;;;;22.73;9.77;;;;;;;-3.24;100.00;102094.94;5048800;28;20041;-73
2024/01/10 07:47:31;;;;;;;32.23;13.77;;;;;;;-3.15;100.00;102082.53;5050281;28;20033;-73
2024/01/10 07:49:57;;;;;;;17.83;4.87;;;;;;;-2.97;100.00;102086.28;5050431;28;20082;-74
2024/01/10 07:52:23;;;;;;;12.70;4.60;;;;;;;-2.99;100.00;102075.09;5031198;28;20037;-74
2024/01/10 07:54:48;;;;;;;15.63;5.07;;;;;;;-2.89;100.00;102084.66;5050664;28;20032;-76
2024/01/10 07:57:14;;;;;;;12.53;4.53;;;;;;;-2.94;100.00;102087.53;5050086;28;20083;-73
2024/01/10 07:59:39;;;;;;;13.93;3.53;;;;;;;-2.91;100.00;102102.16;5049703;28;20041;-73
2024/01/10 08:02:05;;;;;;;7.63;3.53;;;;;;;-3.45;100.00;102012.50;5051025;28;20059;-74
2024/01/10 08:04:31;;;;;;;8.47;3.50;;;;;;;-2.96;100.00;102108.31;5049563;28;20040;-74
2024/01/10 08:06:57;;;;;;;10.27;4.53;;;;;;;-3.17;100.00;102086.47;5049593;28;20041;-74
2024/01/10 08:09:23;;;;;;;6.87;3.10;;;;;;;-3.38;100.00;102063.00;5049874;28;20032;-74
2024/01/10 08:11:49;;;;;;;13.53;3.20;;;;;;;-3.19;100.00;102111.56;5049756;28;20044;-75
2024/01/10 08:14:15;;;;;;;13.03;4.97;;;;;;;-3.18;100.00;102099.81;5049448;28;20037;-75
2024/01/10 08:16:41;;;;;;;11.70;3.93;;;;;;;-3.10;100.00;102100.00;5048268;28;20032;-74
2024/01/10 08:19:07;;;;;;;8.97;3.30;;;;;;;-3.43;99.70;102033.78;5049354;28;20033;-75
2024/01/10 08:21:33;;;;;;;9.43;2.80;;;;;;;-2.92;100.00;102105.41;5049767;28;20063;-73
2024/01/10 08:23:58;;;;;;;8.87;3.10;;;;;;;-3.27;99.49;102039.03;5050243;28;20068;-79
2024/01/10 08:26:24;;;;;;;7.20;2.90;;;;;;;-3.20;98.07;102040.63;5048855;28;20062;-76
2024/01/10 08:28:49;;;;;;;6.73;3.17;;;;;;;-3.04;100.00;102063.53;5049630;28;20025;-71
2024/01/10 08:31:18;;;;;;;11.20;4.20;;;;;;;-2.67;100.00;102123.44;5049500;28;20033;-73
2024/01/10 08:33:45;;;;;;;7.25;3.70;;;;;;;-2.61;98.87;102119.09;5049364;28;20036;-70
2024/01/10 08:36:11;;;;;;;11.87;3.80;;;;;;;-2.86;98.03;102088.44;5040689;28;20036;-72
2024/01/10 08:38:37;;;;;;;12.23;5.07;;;;;;;-2.88;95.83;102099.97;5049282;28;20132;-74
2024/01/10 08:41:03;;;;;;;13.83;4.77;;;;;;;-2.87;97.08;102093.31;5049453;28;20463;-73
2024/01/10 08:43:29;;;;;;;11.10;4.00;;;;;;;-3.20;96.34;102054.19;5049218;28;20032;-73
2024/01/10 08:45:54;;;;;;;9.57;4.20;;;;;;;-2.83;97.01;102111.56;5049819;28;20479;-73
2024/01/10 08:48:20;;;;;;;8.47;3.00;;;;;;;-2.74;95.65;102118.41;5049064;28;20133;-73
2024/01/10 08:50:45;;;;;;;8.53;3.13;;;;;;;-2.82;95.50;102105.75;5048109;28;20467;-73
2024/01/10 08:53:11;;;;;;;8.07;2.90;;;;;;;-2.67;95.46;102106.63;5047976;28;20601;-73
2024/01/10 08:55:39;;;;;;;6.10;2.83;;;;;;;-2.76;95.75;102098.88;5051764;28;20033;-73
2024/01/10 08:58:05;;;;;;;4.63;2.23;;;;;;;-2.70;96.64;102097.81;5053503;28;20061;-74
2024/01/10 09:00:31;;;;;;;3.83;2.13;;;;;;;-2.76;96.71;102103.06;5050351;28;20067;-73
2024/01/10 09:02:58;;;;;;;7.27;2.27;;;;;;;-2.76;96.16;102105.59;5032579;28;20076;-71
2024/01/10 09:05:23;;;;;;;9.57;5.60;;;;;;;-2.64;95.35;102098.53;5053994;28;20069;-73
2024/01/10 09:07:50;;;;;;;6.87;4.40;;;;;;;-2.93;95.70;102031.25;5053065;28;20033;-73
2024/01/10 09:10:15;;;;;;;4.67;2.43;;;;;;;-2.56;94.18;102100.31;5053106;28;20029;-73
2024/01/10 09:12:45;;;;;;;6.43;2.20;;;;;;;-2.49;96.12;102100.28;5053211;28;20033;-73
2024/01/10 09:15:13;;;;;;;5.07;2.47;;;;;;;-2.50;97.60;102085.84;5052487;28;20025;-72
2024/01/10 09:17:40;;;;;;;5.87;2.60;;;;;;;-2.32;96.94;102096.28;5053777;28;20021;-76
2024/01/10 09:20:06;;;;;;;7.47;4.30;;;;;;;-2.24;96.14;102087.94;5053113;28;20039;-73
2024/01/10 09:22:32;;;;;;;5.97;2.43;;;;;;;-2.29;93.41;102046.03;5052747;28;20112;-72
2024/01/10 09:25:03;;;;;;;7.47;3.43;;;;;;;-1.93;92.97;102091.44;5049539;28;20025;-72
2024/01/10 09:27:29;;;;;;;5.60;3.10;;;;;;;-1.78;92.87;102089.72;5053055;28;20406;-72
2024/01/10 09:29:54;;;;;;;7.50;3.20;;;;;;;-1.77;94.37;102065.28;5053196;28;20100;-75
2024/01/10 09:32:20;;;;;;;5.80;2.87;;;;;;;-1.83;93.35;102051.22;5052969;28;20780;-73
2024/01/10 09:34:45;;;;;;;5.23;2.80;;;;;;;-1.68;92.07;102066.34;5052384;28;20044;-72
2024/01/10 09:37:11;;;;;;;4.13;1.97;;;;;;;-2.03;92.05;102012.63;5052425;28;20062;-72
2024/01/10 09:39:36;;;;;;;5.80;3.10;;;;;;;-1.88;91.26;102080.19;5052316;28;20499;-72
2024/01/10 09:42:02;;;;;;;5.57;2.73;;;;;;;-1.94;92.69;102082.03;5052805;28;20036;-73
2024/01/10 09:44:29;;;;;;;8.93;2.90;;;;;;;-1.84;91.71;102074.72;5052478;28;20075;-74
2024/01/10 09:46:55;;;;;;;7.53;3.23;;;;;;;-1.89;89.33;102057.25;5052030;28;20438;-73
2024/01/10 09:49:24;;;;;;;8.10;3.03;;;;;;;-1.76;90.24;102069.63;5052336;28;20028;-75
2024/01/10 09:51:53;;;;;;;7.97;3.30;;;;;;;-1.67;89.46;102058.91;5051656;28;20040;-74
2024/01/10 09:54:21;;;;;;;12.13;6.07;;;;;;;-1.54;89.85;102055.22;5051904;28;20112;-74
2024/01/10 09:56:47;;;;;;;7.47;3.47;;;;;;;-1.45;91.77;102056.22;5052436;28;20040;-73
2024/01/10 09:59:13;;;;;;;4.73;2.60;;;;;;;-1.48;87.92;102051.72;5052407;28;20041;-73
2024/01/10 10:01:41;;;;;;;7.63;3.47;;;;;;;-1.79;87.89;101981.59;5051987;28;20029;-73
2024/01/10 10:04:11;;;;;;;8.07;2.63;;;;;;;-1.75;88.04;101952.44;5052123;28;20065;-74
2024/01/10 10:06:36;;;;;;;;;;;;;;;-1.25;88.29;102043.19;5051553;28;20029;-72
2024/01/10 10:09:02;;;;;;;7.93;2.67;;;;;;;-1.27;88.01;102044.69;5051959;28;19966;-74
2024/01/10 10:11:27;;;;;;;3.63;2.03;;;;;;;-1.38;90.02;102015.63;5051967;28;20033;-73
2024/01/10 10:13:53;;;;;;;4.83;2.20;;;;;;;-1.25;87.35;102038.13;5050732;28;20045;-73
2024/01/10 10:16:26;;;;;;;3.60;2.10;;;;;;;-1.21;87.56;102035.22;5042704;28;20032;-72
2024/01/10 10:18:54;;;;;;;3.87;2.37;;;;;;;-1.16;87.24;102040.78;5051925;28;20021;-73
2024/01/10 10:21:20;;;;;;;7.13;3.10;;;;;;;-1.08;87.46;102022.25;5051226;28;20376;-73
2024/01/10 10:24:03;;;;;;;8.47;3.40;;;;;;;-0.97;84.88;102023.41;5051293;28;20352;-73
2024/01/10 10:26:32;;;;;;;10.23;2.40;;;;;;;-0.97;84.66;102018.34;5046778;28;20107;-73
2024/01/10 10:28:57;;;;;;;4.40;1.88;;;;;;;-1.01;83.36;102021.25;5047100;28;20037;-71
2024/01/10 10:31:24;;;;;;;29.60;18.43;;;;;;;-1.09;82.61;101997.63;5047159;28;20443;-74
2024/01/10 10:33:51;;;;;;;12.67;7.30;;;;;;;-1.09;81.44;101990.03;5029063;28;20041;-73
2024/01/10 10:36:16;;;;;;;12.10;7.57;;;;;;;-0.97;82.71;102003.13;5047549;28;20052;-73
2024/01/10 10:38:42;;;;;;;5.27;3.47;;;;;;;-0.86;82.98;101995.03;5048082;28;20447;-73
2024/01/10 10:41:11;;;;;;;3.23;1.90;;;;;;;-0.85;79.99;102001.94;5048291;28;20079;-76
2024/01/10 10:43:38;;;;;;;10.27;5.45;;;;;;;-1.09;81.26;101957.06;5048290;28;20119;-72
2024/01/10 10:46:16;;;;;;;9.03;5.43;;;;;;;-0.85;80.18;102004.47;5048615;28;20028;-73
2024/01/10 10:48:42;;;;;;;5.97;1.80;;;;;;;-1.02;81.99;101989.06;5048087;28;20102;-74
2024/01/10 10:51:32;;;;;;;7.43;2.30;;;;;;;-1.08;81.42;101994.38;5048218;28;20561;-73
2024/01/10 10:53:59;;;;;;;5.30;2.10;;;;;;;-1.48;79.77;101914.94;5044894;28;20033;-73
2024/01/10 10:56:30;;;;;;;6.07;1.57;;;;;;;-0.91;80.97;102000.34;5041548;28;20040;-72
2024/01/10 10:58:59;;;;;;;7.37;2.90;;;;;;;-1.03;82.56;101972.06;5031614;28;20045;-73
2024/01/10 11:01:27;;;;;;;5.17;2.27;;;;;;;-0.73;82.56;101983.69;5051328;28;20078;-72
2024/01/10 11:03:53;;;;;;;3.20;1.77;;;;;;;-0.72;81.06;101983.84;5049885;28;20062;-72
2024/01/10 11:06:21;;;;;;;3.07;1.63;;;;;;;-0.69;77.74;101970.56;5046570;28;20089;-73
2024/01/10 11:09:02;;;;;;;3.40;1.80;;;;;;;-0.50;80.53;101976.88;5049883;28;20488;-75
2024/01/10 11:11:55;;;;;;;10.40;3.57;;;;;;;-0.36;79.90;101975.78;5051139;28;20067;-76
2024/01/10 11:14:43;;;;;;;4.13;1.87;;;;;;;-0.38;78.53;101981.44;5049567;28;20028;-76
2024/01/10 11:17:30;;;;;;;2.97;1.60;;;;;;;-0.51;79.15;101959.84;5046620;28;20037;-74